»·PEaware :: N149CD KSMX-KVNY

N149CD :: KSMX-KVNY

FLIGHT INFORMATION

Flight Status: Arrived
Operator: Privately registered:
United States
More flights under this callsign
Pilot: Nathan E. (30132)
Aircraft: CESSNA 172 SKYHAWK
(C172)
More flights by this aircraft type
Origin: KSMX Santa Maria Pub/Capt Hancock
United States
Destination: KVNY Van Nuys
United States
More flights between these airports :: More routes between these airports
Route: RZS V186 FIM
File this flight plan on PilotEdge
Remarks:
Altitude:
(Current/Filed)
7,000ft
Speed:
(Current/Filed)
110kts
Departed: 15-Sep-20 09:48 AM
Arrived: 15-Sep-20 10:57 AM
Distance/Time
Traveled:
106nm/1:09
Distance/Time
To Go:
Arrived

Flight Plot

Page will automatically refresh every two minutes.


Map Options




Map Legend


Flown Route
Filed Route
Departure Airport
Arrival Airport
Navaid (VOR, NDB)
Fix

Horizontal Profiles

Position Reports

Time Latitude Longitude Heading Altitude Ground
Speed
15-Sep-20 09:32 34.901534 -120.451046 154 265ft 0kts
15-Sep-20 09:33 34.901534 -120.451046 154 265ft 0kts
15-Sep-20 09:34 34.901534 -120.451046 154 265ft 0kts
15-Sep-20 09:35 34.901534 -120.451046 154 265ft 0kts
15-Sep-20 09:36 34.901534 -120.451046 154 265ft 0kts
15-Sep-20 09:37 34.901534 -120.451046 154 265ft 0kts
15-Sep-20 09:38 34.901534 -120.451046 154 265ft 0kts
15-Sep-20 09:39 34.901534 -120.451046 154 265ft 0kts
15-Sep-20 09:40 34.901534 -120.451046 154 265ft 0kts
15-Sep-20 09:41 34.901534 -120.451046 154 265ft 0kts
15-Sep-20 09:42 34.899298 -120.451160 135 265ft 14kts
15-Sep-20 09:43 34.894938 -120.445953 135 265ft 21kts
15-Sep-20 09:44 34.893202 -120.444957 289 265ft 0kts
15-Sep-20 09:45 34.893202 -120.444957 289 265ft 0kts
15-Sep-20 09:46 34.892820 -120.445882 315 265ft 11kts
15-Sep-20 09:47 34.906068 -120.461329 318 859ft 73kts
15-Sep-20 09:48 34.915548 -120.448351 110 1730ft 77kts
15-Sep-20 09:49 34.907114 -120.424137 112 2564ft 79kts
15-Sep-20 09:50 34.898352 -120.399209 112 3349ft 81kts
15-Sep-20 09:51 34.888334 -120.374479 126 4083ft 83kts
15-Sep-20 09:52 34.874427 -120.351780 127 4812ft 84kts
15-Sep-20 09:53 34.860214 -120.328845 128 5514ft 85kts
15-Sep-20 09:54 34.845766 -120.305636 129 6181ft 86kts
15-Sep-20 09:55 34.831128 -120.282174 130 6815ft 87kts
15-Sep-20 09:56 34.813702 -120.254446 129 6988ft 118kts
15-Sep-20 09:57 34.793994 -120.223044 129 6986ft 118kts
15-Sep-20 09:58 34.774068 -120.191220 129 6984ft 117kts
15-Sep-20 09:59 34.754283 -120.159621 129 6982ft 118kts
15-Sep-20 10:00 34.734358 -120.127820 129 6982ft 118kts
15-Sep-20 10:01 34.714515 -120.096177 129 6981ft 118kts
15-Sep-20 10:02 34.694607 -120.064458 129 6981ft 118kts
15-Sep-20 10:03 34.674648 -120.032686 129 6981ft 118kts
15-Sep-20 10:04 34.654759 -120.001055 129 6981ft 118kts
15-Sep-20 10:05 34.634816 -119.969366 129 6981ft 118kts
15-Sep-20 10:06 34.614911 -119.937764 129 6981ft 118kts
15-Sep-20 10:07 34.594927 -119.906067 129 6981ft 118kts
15-Sep-20 10:08 34.575125 -119.874681 129 7000ft 117kts
15-Sep-20 10:09 34.555167 -119.843083 129 7000ft 118kts
15-Sep-20 10:10 34.535151 -119.811419 129 7000ft 118kts
15-Sep-20 10:11 34.515207 -119.779896 129 7000ft 118kts
15-Sep-20 10:12 34.496637 -119.746982 125 6999ft 118kts
15-Sep-20 10:13 34.478561 -119.713724 125 6997ft 118kts
15-Sep-20 10:14 34.460520 -119.680492 126 6994ft 118kts
15-Sep-20 10:15 34.442452 -119.647218 126 6992ft 117kts
15-Sep-20 10:16 34.424332 -119.613874 126 6989ft 117kts
15-Sep-20 10:17 34.406318 -119.580754 127 6987ft 117kts
15-Sep-20 10:18 34.388412 -119.547863 127 6984ft 116kts
15-Sep-20 10:19 34.370617 -119.515208 127 6982ft 115kts
15-Sep-20 10:20 34.352893 -119.482717 127 6982ft 115kts
15-Sep-20 10:21 34.335226 -119.450357 127 6982ft 115kts
15-Sep-20 10:22 34.319292 -119.416632 97 6983ft 119kts
15-Sep-20 10:23 34.320352 -119.376245 88 6982ft 121kts
15-Sep-20 10:25 34.325902 -119.296634 87 6980ft 120kts
15-Sep-20 10:26 34.328931 -119.256361 87 6998ft 120kts
15-Sep-20 10:27 34.331973 -119.215947 86 6997ft 120kts
15-Sep-20 10:28 34.335003 -119.175603 86 6995ft 120kts
15-Sep-20 10:29 34.338034 -119.135095 85 6994ft 120kts
15-Sep-20 10:30 34.341035 -119.094803 85 6992ft 120kts
15-Sep-20 10:31 34.344027 -119.054438 85 6991ft 120kts
15-Sep-20 10:32 34.346997 -119.014202 85 6913ft 123kts
15-Sep-20 10:33 34.350078 -118.971953 84 6412ft 125kts
15-Sep-20 10:34 34.353149 -118.929934 84 5995ft 122kts
15-Sep-20 10:35 34.356098 -118.889622 84 5990ft 119kts
15-Sep-20 10:36 34.366795 -118.851883 68 5994ft 116kts
15-Sep-20 10:37 34.378382 -118.817581 68 5989ft 106kts
15-Sep-20 10:38 34.389582 -118.784592 68 5992ft 105kts
15-Sep-20 10:39 34.400523 -118.752342 68 5998ft 105kts
15-Sep-20 10:40 34.411805 -118.719051 68 6004ft 105kts
15-Sep-20 10:41 34.422280 -118.688110 68 6010ft 105kts
15-Sep-20 10:42 34.434031 -118.653360 68 6017ft 105kts
15-Sep-20 10:43 34.445142 -118.620472 68 6023ft 105kts
15-Sep-20 10:44 34.456194 -118.587720 68 6029ft 105kts
15-Sep-20 10:45 34.467265 -118.554892 68 6035ft 104kts
15-Sep-20 10:46 34.474503 -118.521427 118 5904ft 110kts
15-Sep-20 10:47 34.443741 -118.512331 172 5403ft 120kts
15-Sep-20 10:48 34.410301 -118.509216 172 4899ft 121kts
15-Sep-20 10:49 34.376677 -118.506159 173 4396ft 121kts
15-Sep-20 10:50 34.342549 -118.502978 174 3734ft 122kts
15-Sep-20 10:51 34.309926 -118.499887 174 3011ft 115kts
15-Sep-20 10:52 34.278174 -118.496872 175 2289ft 114kts
15-Sep-20 10:53 34.249233 -118.494106 175 1629ft 89kts
15-Sep-20 10:54 34.229125 -118.492173 174 1174ft 65kts
15-Sep-20 10:55 34.211809 -118.490572 173 806ft 41kts
15-Sep-20 10:56 34.209020 -118.491466 175 806ft 16kts
15-Sep-20 10:57 34.206287 -118.492520 178 806ft 1kts

Navigation Log

Ident Type
Flight plan parsing failed, navigation log unavailable